KCEW/CEW METAR and TAF weather

Enter ICAO airport designator
Station Type Date Time Source
KCEW METAR 2023/01/30 12:04 UTC NOAA

KCEW 301204Z AUTO 24006KT 8SM OVC006 21/21 A3014 RMK AO2 CIG 003V009 T02110206


Station Type Date Time Source
KCEW Decoded METAR 2023/01/30 12:04 UTC NOAA

CRESTVIEW SIKES AIRPORT, FL, United States (KCEW) 30-46N 086-31W 55M
Jan 30, 2023 - 07:04 AM EST / 2023.01.30 1204 UTC
Wind: from the WSW (240 degrees) at 7 MPH (6 KT):0
Visibility: 8 mile(s):0
Sky conditions: overcast
Temperature: 70.0 F (21.1 C)
Dew Point: 69.1 F (20.6 C)
Relative Humidity: 96%
Pressure (altimeter): 30.14 in. Hg (1020 hPa)
ob: KCEW 301204Z AUTO 24006KT 8SM OVC006 21/21 A3014 RMK AO2 CIG 003V009 T02110206
cycle: 12

Station Type Date Time Source
KCEW TAF UTC NOAA

Error!

Example: see airport list